createdAt,value
2018-08-08T00:00:52.677Z,60.90
2018-08-08T00:03:21.147Z,61.10
2018-08-08T00:05:49.599Z,61.50
2018-08-08T00:08:18.120Z,62.00
2018-08-08T00:10:46.599Z,62.10
2018-08-08T00:13:15.072Z,62.50
2018-08-08T00:15:43.519Z,62.70
2018-08-08T00:18:12.015Z,62.80
2018-08-08T00:20:40.536Z,62.90
2018-08-08T00:25:37.148Z,64.10
2018-08-08T00:28:06.025Z,63.60
2018-08-08T00:30:34.967Z,64.00
2018-08-08T00:33:03.431Z,65.20
2018-08-08T00:35:31.915Z,64.80
2018-08-08T00:38:00.403Z,65.20
2018-08-08T00:40:28.910Z,65.60
2018-08-08T00:45:25.549Z,66.70
2018-08-08T00:47:53.999Z,67.40
2018-08-08T00:50:22.521Z,67.70
2018-08-08T00:52:51.028Z,68.30
2018-08-08T00:55:19.603Z,69.00
2018-08-08T00:57:48.025Z,69.40
2018-08-08T01:00:17.763Z,70.70
2018-08-08T01:02:46.810Z,71.50
2018-08-08T01:05:16.235Z,73.00
2018-08-08T01:07:45.761Z,73.60
2018-08-08T01:10:14.251Z,74.50
2018-08-08T01:12:42.804Z,74.10
2018-08-08T01:15:12.727Z,67.00
2018-08-08T01:17:41.519Z,65.00
2018-08-08T01:20:12.603Z,64.60
2018-08-08T01:27:38.851Z,64.00
2018-08-08T01:30:14.427Z,63.30
2018-08-08T01:35:11.479Z,63.20
2018-08-08T01:42:37.784Z,63.10
2018-08-08T01:45:08.153Z,63.00
2018-08-08T01:47:36.927Z,63.30
2018-08-08T01:50:06.559Z,63.30
2018-08-08T01:55:03.616Z,63.50
2018-08-08T01:57:32.084Z,63.50
2018-08-08T02:00:00.770Z,63.70
2018-08-08T09:08:43.283Z,99.90
2018-08-08T09:11:11.675Z,99.90
2018-08-08T09:13:40.104Z,99.90
2018-08-08T09:16:08.582Z,99.90
2018-08-08T09:18:37.003Z,99.90
2018-08-08T09:21:05.524Z,99.90
2018-08-08T09:23:33.958Z,99.90
2018-08-08T09:26:02.458Z,99.90
2018-08-08T09:28:31.340Z,99.90
2018-08-08T09:30:59.767Z,99.90
2018-08-08T09:33:33.293Z,99.90
2018-08-08T09:36:02.817Z,99.90
2018-08-08T09:38:31.676Z,99.90
2018-08-08T09:41:00.172Z,99.90
2018-08-08T09:43:28.796Z,99.90
2018-08-08T09:45:57.443Z,99.90
2018-08-08T09:48:25.831Z,99.90
2018-08-08T09:50:54.287Z,99.90
2018-08-08T09:53:22.708Z,99.90
2018-08-08T09:55:51.252Z,99.90
2018-08-08T09:58:19.739Z,99.90
2018-08-08T10:00:53.602Z,99.90
2018-08-08T10:03:27.561Z,99.90
2018-08-08T10:05:55.964Z,99.90
2018-08-08T10:08:24.417Z,99.90
2018-08-08T10:10:52.867Z,99.90
2018-08-08T10:13:21.280Z,99.90
2018-08-08T10:15:49.740Z,99.90
2018-08-08T10:18:18.139Z,99.90
2018-08-08T10:20:46.540Z,99.90
2018-08-08T10:23:14.967Z,99.90
2018-08-08T10:25:43.413Z,99.90
2018-08-08T10:28:11.920Z,99.90
2018-08-08T10:30:40.411Z,99.90
2018-08-08T10:33:08.903Z,99.90
2018-08-08T10:35:37.370Z,99.90
2018-08-08T10:38:05.861Z,99.90
2018-08-08T10:40:34.279Z,99.90
2018-08-08T10:43:02.727Z,99.90
2018-08-08T10:45:31.172Z,99.90
2018-08-08T10:47:59.595Z,99.90
2018-08-08T10:50:28.004Z,99.90
2018-08-08T10:52:56.405Z,99.90
2018-08-08T10:55:24.811Z,99.90
2018-08-08T10:57:53.229Z,99.90
2018-08-08T11:00:21.672Z,99.90
2018-08-08T11:02:50.071Z,99.90
2018-08-08T11:05:18.475Z,99.90
2018-08-08T11:07:46.875Z,99.90
2018-08-08T11:10:15.292Z,99.90
2018-08-08T11:12:43.719Z,99.90
2018-08-08T11:15:12.138Z,99.90
2018-08-08T11:17:40.567Z,99.90
2018-08-08T11:20:08.996Z,99.90
2018-08-08T11:22:37.431Z,99.90
2018-08-08T11:25:05.912Z,99.90
2018-08-08T11:27:34.314Z,99.90
2018-08-08T11:30:02.825Z,99.90
2018-08-08T11:32:31.238Z,99.90
2018-08-08T11:34:59.647Z,99.90
2018-08-08T11:37:28.096Z,99.90
2018-08-08T11:39:56.508Z,99.90
2018-08-08T11:42:24.939Z,99.90
2018-08-08T11:44:53.371Z,99.90
2018-08-08T11:47:21.848Z,99.90
2018-08-08T11:49:50.320Z,99.90
2018-08-08T11:52:18.732Z,99.90
2018-08-08T11:54:47.162Z,99.90
2018-08-08T11:57:15.559Z,99.90
2018-08-08T12:00:17.319Z,99.90
2018-08-08T12:02:45.764Z,99.90
2018-08-08T12:05:14.236Z,99.90
2018-08-08T12:07:42.664Z,99.90
2018-08-08T12:10:11.095Z,99.90
2018-08-08T12:12:39.672Z,99.90
2018-08-08T12:15:09.538Z,99.90
2018-08-08T12:17:37.996Z,99.40
2018-08-08T12:20:06.459Z,99.40
2018-08-08T12:22:35.144Z,99.20
2018-08-08T12:25:03.612Z,99.00
2018-08-08T12:27:32.163Z,99.10
2018-08-08T12:30:00.576Z,98.90
2018-08-08T12:32:29.046Z,98.70
2018-08-08T12:34:57.497Z,99.20
2018-08-08T12:37:27.156Z,99.30
2018-08-08T12:39:55.582Z,99.40
2018-08-08T12:42:24.471Z,99.40
2018-08-08T12:44:53.011Z,99.50
2018-08-08T12:47:22.003Z,99.20
2018-08-08T12:49:50.451Z,98.70
2018-08-08T12:52:18.923Z,99.10
2018-08-08T12:54:47.473Z,98.70
2018-08-08T12:57:15.908Z,98.10
2018-08-08T12:59:44.395Z,98.20
2018-08-08T13:02:13.067Z,98.00
2018-08-08T13:04:41.450Z,97.50
2018-08-08T13:07:10.020Z,97.40
2018-08-08T13:09:38.513Z,97.00
2018-08-08T13:12:06.991Z,96.80
2018-08-08T13:14:35.496Z,96.20
2018-08-08T13:17:03.955Z,95.50
2018-08-08T13:19:32.502Z,95.50
2018-08-08T13:22:01.028Z,95.40
2018-08-08T13:24:29.544Z,94.80
2018-08-08T13:26:58.664Z,95.20
2018-08-08T13:29:27.183Z,94.70
2018-08-08T13:31:55.674Z,95.10
2018-08-08T13:34:24.155Z,95.00
2018-08-08T13:36:52.635Z,95.50
2018-08-08T13:39:21.222Z,95.00
2018-08-08T13:41:49.631Z,94.20
2018-08-08T13:44:18.167Z,93.10
2018-08-08T13:46:46.603Z,93.10
2018-08-08T13:49:15.075Z,93.00
2018-08-08T13:51:43.578Z,93.20
2018-08-08T13:54:12.106Z,92.70
2018-08-08T13:56:40.639Z,92.60
2018-08-08T13:59:09.081Z,93.60
2018-08-08T14:01:37.543Z,94.40
2018-08-08T14:04:06.180Z,94.90
2018-08-08T14:06:34.766Z,95.90
2018-08-08T14:09:03.673Z,96.00
2018-08-08T14:11:32.198Z,95.10
2018-08-08T14:14:00.692Z,94.50
2018-08-08T14:16:29.147Z,93.80
2018-08-08T14:18:57.661Z,93.40
2018-08-08T14:21:26.194Z,92.00
2018-08-08T14:23:54.694Z,92.90
2018-08-08T14:26:24.219Z,92.20
2018-08-08T14:28:52.699Z,92.90
2018-08-08T14:31:21.371Z,93.90
2018-08-08T14:33:50.267Z,94.50
2018-08-08T14:43:18.195Z,95.20
2018-08-08T14:45:46.671Z,96.50
2018-08-08T14:48:15.195Z,96.80
2018-08-08T14:50:43.744Z,97.20
2018-08-08T14:53:12.255Z,97.50
2018-08-08T14:55:40.918Z,97.90
2018-08-08T14:58:09.441Z,98.00
2018-08-08T15:00:37.873Z,98.10
2018-08-08T15:03:06.628Z,98.40
2018-08-08T15:05:35.118Z,97.90
2018-08-08T15:08:03.855Z,98.10
2018-08-08T15:10:32.342Z,98.10
2018-08-08T15:13:00.845Z,98.10
2018-08-08T15:15:29.244Z,98.40
2018-08-08T15:17:57.695Z,98.40
2018-08-08T15:20:26.125Z,98.00
2018-08-08T15:22:54.679Z,98.30
2018-08-08T15:25:23.279Z,98.30
2018-08-08T15:28:55.236Z,98.80
2018-08-08T15:31:23.791Z,98.60
2018-08-08T15:33:52.256Z,98.50
2018-08-08T15:36:20.822Z,98.80
2018-08-08T15:38:49.266Z,99.00
2018-08-08T15:41:18.097Z,99.00
2018-08-08T15:43:46.655Z,99.10
2018-08-08T15:46:16.243Z,99.00
2018-08-08T15:48:44.692Z,99.30
2018-08-08T15:51:13.274Z,99.30
2018-08-08T15:53:41.902Z,99.70
2018-08-08T15:56:10.465Z,99.90
2018-08-08T15:58:38.981Z,99.30
2018-08-08T16:01:07.555Z,99.20
2018-08-08T16:03:36.137Z,99.10
2018-08-08T16:06:04.739Z,99.30
2018-08-08T16:08:33.207Z,99.80
2018-08-08T16:11:01.724Z,99.70
2018-08-08T16:13:30.180Z,99.60
2018-08-08T16:15:58.699Z,99.70
2018-08-08T16:18:27.170Z,99.20
2018-08-08T16:20:55.568Z,99.10
2018-08-08T16:23:24.071Z,99.00
2018-08-08T16:25:52.566Z,99.10
2018-08-08T16:28:21.043Z,99.10
2018-08-08T16:30:49.659Z,98.80
2018-08-08T16:33:19.218Z,98.90
2018-08-08T16:35:47.713Z,98.70
2018-08-08T16:38:16.623Z,98.50
2018-08-08T16:40:45.435Z,98.70
2018-08-08T16:43:14.955Z,98.80
2018-08-08T16:45:43.460Z,98.50
2018-08-08T16:48:11.919Z,98.00
2018-08-08T16:50:40.448Z,98.20
2018-08-08T16:53:08.952Z,97.80
2018-08-08T16:55:37.484Z,97.80
2018-08-08T16:58:06.023Z,98.00
2018-08-08T17:00:34.472Z,97.60
2018-08-08T17:03:02.907Z,97.50
2018-08-08T17:05:31.381Z,97.50
2018-08-08T17:07:59.870Z,97.90
2018-08-08T17:10:28.783Z,97.40
2018-08-08T17:12:57.867Z,97.60
2018-08-08T17:15:26.391Z,97.40
2018-08-08T17:17:54.953Z,97.40
2018-08-08T17:20:23.462Z,97.20
2018-08-08T17:22:51.908Z,97.50
2018-08-08T17:25:20.423Z,97.00
2018-08-08T17:27:48.885Z,97.20
2018-08-08T17:30:17.327Z,97.10
2018-08-08T17:32:45.878Z,97.30
2018-08-08T17:35:14.332Z,97.10
2018-08-08T17:37:43.217Z,97.40
2018-08-08T17:40:11.717Z,97.20
2018-08-08T17:42:40.186Z,97.20
2018-08-08T17:45:08.725Z,97.20
2018-08-08T17:47:37.395Z,97.10
2018-08-08T17:50:06.742Z,97.10
2018-08-08T17:52:35.431Z,97.30
2018-08-08T17:55:04.431Z,97.40
2018-08-08T17:57:33.288Z,97.40
2018-08-08T18:00:01.832Z,97.40
2018-08-08T18:02:30.327Z,97.70
2018-08-08T18:04:58.880Z,97.40
2018-08-08T18:07:27.457Z,97.30
2018-08-08T18:09:56.035Z,97.70
2018-08-08T18:12:24.515Z,97.30
2018-08-08T18:14:53.038Z,97.30
2018-08-08T18:17:21.569Z,97.20
2018-08-08T18:19:50.048Z,97.30
2018-08-08T18:22:18.499Z,97.50
2018-08-08T18:24:47.016Z,97.50
2018-08-08T18:27:15.508Z,97.20
2018-08-08T18:29:43.981Z,97.30
2018-08-08T18:32:12.407Z,97.50
2018-08-08T18:34:40.914Z,97.40
2018-08-08T18:37:09.688Z,97.70
2018-08-08T18:39:38.122Z,98.00
2018-08-08T18:42:06.617Z,98.00
2018-08-08T18:44:35.072Z,98.00
2018-08-08T18:47:03.578Z,98.10
2018-08-08T18:49:32.030Z,98.10
2018-08-08T18:52:00.525Z,98.30
2018-08-08T18:54:28.962Z,98.50
2018-08-08T18:56:57.498Z,98.60
2018-08-08T18:59:26.103Z,98.80
2018-08-08T19:01:54.512Z,99.00
2018-08-08T19:04:23.048Z,98.60
2018-08-08T19:06:51.543Z,98.70
2018-08-08T19:09:19.999Z,99.10
2018-08-08T19:11:48.571Z,98.60
2018-08-08T19:14:17.094Z,98.50
2018-08-08T19:16:45.602Z,98.60
2018-08-08T19:19:14.151Z,98.80
2018-08-08T19:21:42.611Z,98.80
2018-08-08T19:24:11.153Z,98.80
2018-08-08T19:26:39.691Z,99.00
2018-08-08T19:29:08.215Z,99.10
2018-08-08T19:31:36.751Z,99.20
2018-08-08T19:34:05.304Z,99.30
2018-08-08T19:36:33.828Z,99.30
2018-08-08T19:39:02.319Z,99.50
2018-08-08T19:41:30.779Z,99.60
2018-08-08T19:43:59.229Z,99.80
2018-08-08T19:46:27.751Z,99.80
2018-08-08T19:48:56.208Z,99.90
2018-08-08T19:51:24.709Z,99.90
2018-08-08T19:53:53.166Z,99.90
2018-08-08T19:56:21.676Z,99.90
2018-08-08T19:58:50.103Z,99.90
2018-08-08T20:01:18.892Z,99.90
2018-08-08T20:03:47.511Z,99.90
2018-08-08T20:06:16.013Z,99.90
2018-08-08T20:08:44.556Z,99.90
2018-08-08T20:11:13.103Z,99.90
2018-08-08T20:13:41.767Z,99.90
2018-08-08T20:16:10.269Z,99.90
2018-08-08T20:18:38.776Z,99.90
2018-08-08T20:21:07.436Z,99.90
2018-08-08T20:23:36.046Z,99.90
2018-08-08T20:26:04.669Z,99.90
2018-08-08T20:28:33.355Z,99.90
2018-08-08T20:31:01.922Z,99.90
2018-08-08T20:33:30.516Z,99.90
2018-08-08T20:35:59.051Z,99.90
2018-08-08T20:38:27.486Z,99.90
2018-08-08T20:40:56.016Z,99.90
2018-08-08T20:43:24.455Z,99.90
2018-08-08T20:45:52.975Z,99.90
2018-08-08T20:48:21.432Z,99.90
2018-08-08T20:50:49.903Z,99.90
2018-08-08T20:53:18.395Z,99.90
2018-08-08T20:55:46.891Z,99.90
2018-08-08T20:58:15.367Z,99.90
2018-08-08T21:00:43.835Z,99.90
2018-08-08T21:03:12.307Z,99.90
2018-08-08T21:05:40.811Z,99.90
2018-08-08T21:08:09.558Z,99.90
2018-08-08T21:10:38.058Z,99.90
2018-08-08T21:13:06.501Z,99.90
2018-08-08T21:15:35.083Z,99.90
2018-08-08T21:18:03.624Z,99.90
2018-08-08T21:20:32.107Z,99.90
2018-08-08T21:23:00.595Z,99.90
2018-08-08T21:25:29.084Z,99.90
2018-08-08T21:27:57.528Z,99.90
2018-08-08T21:30:26.091Z,99.90
2018-08-08T21:32:54.594Z,99.90
2018-08-08T21:35:23.104Z,99.90
2018-08-08T21:37:51.563Z,99.90
2018-08-08T21:40:20.071Z,99.90
2018-08-08T21:42:48.558Z,99.90
2018-08-08T21:45:17.029Z,99.90
2018-08-08T21:47:45.487Z,99.90
2018-08-08T21:50:14.023Z,99.90
2018-08-08T21:52:42.420Z,99.90
2018-08-08T21:55:22.171Z,99.90
2018-08-08T21:58:02.075Z,99.90
2018-08-08T22:00:41.723Z,99.90
2018-08-08T22:03:21.379Z,99.90
2018-08-08T22:06:01.292Z,99.90
2018-08-08T22:08:40.951Z,99.90
2018-08-08T22:11:20.864Z,99.90
2018-08-08T22:14:00.764Z,99.90
2018-08-08T22:16:40.597Z,99.90
2018-08-08T22:19:26.773Z,99.90
2018-08-08T22:21:55.691Z,99.90
2018-08-08T22:24:24.869Z,99.90
2018-08-08T22:26:53.383Z,99.90
2018-08-08T22:29:21.827Z,99.90
2018-08-08T22:31:50.312Z,99.90
2018-08-08T22:34:18.820Z,99.90
2018-08-08T22:36:47.264Z,99.90
2018-08-08T22:39:17.087Z,99.90
2018-08-08T22:41:45.567Z,99.90
2018-08-08T22:44:14.454Z,99.90
2018-08-08T22:46:42.943Z,99.90
2018-08-08T22:49:11.481Z,99.90
2018-08-08T22:51:40.004Z,99.90
2018-08-08T22:54:08.539Z,99.90
2018-08-08T22:56:36.956Z,99.90
2018-08-08T22:59:05.531Z,99.90
2018-08-08T23:01:34.019Z,99.90
2018-08-08T23:04:02.511Z,99.90
2018-08-08T23:06:31.831Z,99.90
2018-08-08T23:09:00.271Z,99.90
2018-08-08T23:11:28.799Z,99.90
2018-08-08T23:13:57.227Z,99.90
2018-08-08T23:16:25.726Z,99.90
2018-08-08T23:18:54.203Z,99.90
2018-08-08T23:21:22.759Z,99.90
2018-08-08T23:23:51.276Z,99.90
2018-08-08T23:26:20.690Z,99.90
2018-08-08T23:28:49.184Z,99.90
2018-08-08T23:31:17.643Z,99.90
2018-08-08T23:33:46.171Z,99.90
2018-08-08T23:36:14.595Z,99.90
2018-08-08T23:38:43.138Z,99.90
2018-08-08T23:41:11.591Z,99.90
2018-08-08T23:43:40.066Z,99.90
2018-08-08T23:46:08.571Z,99.90
2018-08-08T23:48:37.035Z,99.90
2018-08-08T23:51:05.553Z,99.90
2018-08-08T23:53:34.035Z,99.90
2018-08-08T23:56:02.460Z,99.90
2018-08-08T23:58:30.963Z,99.90
